Harding, Wisconsin
Current Conditions -  °F | °C
As of 6:55 AM on Saturday 20 Dec 2014 (Local Time) from KRRL Reporting Station
Haze Haze  
Wind Chill: 24°   Ceiling: 1300
Heat Index: 24°   Visibility: 4mi
Dew Point: 23°   Wind: 0mph
Humidity: 96%   Direction: NA
Pressure: 30.2"   Gusts: NA
Location:  45.2167°N, 89.8732°W
Report Text: KRRL 201255Z AUTO 00000KT 4SM BR SCT007 OVC013 M04/M05 A3020 RMK AO2 T10451050
Loading
Personal Weather Stations






























Interactive Weather Map New forecast layout! Learn more

10-Day Weather Forecast

Advertisements
Track Severe Weather on mobile